Flight Track Log - Related Links

Times and Time Zones

All times are in EDT time to prevent confusion due to time zone crossing. See the JBU185 flight status page for this flight to view local times or setup timezone preferences in your user account.

Time Position Orientation Groundspeed Altitude Reporting Facility
EDT Latitude Longitude Course Direction KTS MPH feet Rate Location/Type
Sat 06:10:00 AM 40.7528 -73.9459 129° Southeast  Level Estimated
Sat 06:11:00 AM 40.7509 -73.9430 132° Southeast  Level Estimated
Sat 06:12:00 AM 40.7490 -73.9402 132° Southeast  Level Estimated
Sat 06:13:00 AM 40.7471 -73.9374 132° Southeast  Level Estimated
Sat 06:14:00 AM 40.7452 -73.9345 132° Southeast  Level Estimated
Sat 06:15:00 AM 40.7432 -73.9317 132° Southeast  Level Estimated
Sat 06:16:00 AM 40.7413 -73.9288 132° Southeast  Level Estimated
Sat 06:17:00 AM 40.7394 -73.9260 132° Southeast  Level Estimated
Sat 06:18:00 AM 40.7375 -73.9232 132° Southeast  Level Estimated
Sat 06:19:00 AM 40.7356 -73.9203 132° Southeast  Level Estimated
Sat 06:20:00 AM 40.7336 -73.9175 132° Southeast  Level Estimated
Sat 06:21:00 AM 40.7317 -73.9146 132° Southeast  Level Estimated
Sat 06:22:00 AM 40.7298 -73.9118 132° Southeast  Level Estimated
Sat 06:23:00 AM 40.7279 -73.9090 132° Southeast  Level Estimated
Sat 06:24:00 AM 40.7260 -73.9061 132° Southeast  Level Estimated
Sat 06:25:00 AM 40.7240 -73.9033 132° Southeast  Level Estimated
Sat 06:26:00 AM 40.7221 -73.9004 132° Southeast  Level Estimated
Sat 06:27:00 AM 40.7202 -73.8976 132° Southeast  Level Estimated
Sat 06:28:00 AM 40.7183 -73.8948 132° Southeast  Level Estimated
Sat 06:29:00 AM 40.7164 -73.8919 132° Southeast  Level Estimated
Sat 06:30:00 AM 40.7144 -73.8891 132° Southeast  Level Estimated
Sat 06:31:00 AM 40.6603 -73.8092 132° Southeast  Level Estimated
Sat 06:32:00 AM 40.6398 -73.7789 132° Southeast  Level Estimated
Sat 06:33:00 AM 40.6398 -73.7789 72° East  Level Estimated
Sat 06:34:00 AM 40.6398 -73.7789 72° East  Level Estimated
Sat 06:35:00 AM 40.6398 -73.7789 72° East  Level Estimated
Sat 06:36:00 AM 40.6398 -73.7789 72° East  Level Estimated
Sat 06:37:00 AM 40.6398 -73.7789 72° East  Level Estimated
Sat 06:38:00 AM 40.6398 -73.7789 72° East  Level Estimated
Sat 06:39:00 AM 40.6398 -73.7789 72° East  Level Estimated
Sat 06:40:00 AM 40.6398 -73.7789 72° East  Level Estimated
Sat 06:41:00 AM 40.6398 -73.7789 72° East  Level Estimated
Sat 06:42:00 AM 40.6398 -73.7789 72° East  Level Estimated
Sat 06:43:00 AM 40.6398 -73.7789 72° East  Level Estimated
Sat 06:44:00 AM 40.6398 -73.7789 72° East  Level Estimated
Sat 06:45:00 AM 40.6398 -73.7789 72° East  Level Estimated
Sat 06:46:00 AM 40.6398 -73.7789 72° East  Level Estimated
Sat 06:47:00 AM 40.6398 -73.7789 72° East  Level Estimated
Sat 06:48:00 AM 40.6398 -73.7789 72° East  Level Estimated
Sat 06:49:00 AM 40.6398 -73.7789 72° East  Level Estimated
Sat 06:50:00 AM 40.6398 -73.7789 72° East  Level Estimated
Sat 06:51:00 AM 40.6398 -73.7789 72° East  Level Estimated
Sat 06:52:00 AM 40.6398 -73.7789 72° East  Level Estimated
Sat 06:53:00 AM 40.6398 -73.7789 72° East  Level Estimated
Sat 06:54:00 AM 40.6398 -73.7789 72° East  Level Estimated
Sat 06:55:00 AM 40.6398 -73.7789 72° East  Level Estimated
Sat 06:56:00 AM 40.6398 -73.7789 72° East  Level Estimated
Sat 06:57:00 AM 40.6398 -73.7789 72° East  Level Estimated
Sat 06:58:00 AM 40.6398 -73.7789 72° East  Level Estimated
Sat 06:59:00 AM 40.6398 -73.7789 72° East  Level Estimated
Sat 07:00:00 AM 40.6398 -73.7789 72° East  Level Estimated
Sat 07:01:00 AM 40.6398 -73.7789 72° East  Level Estimated
Sat 07:02:00 AM 40.6398 -73.7789 72° East  Level Estimated

Login

Don't have an account? Register now (free) for customized features, flight alerts, and more!